Time;durP1;ratioP1;P1;durP2;ratioP2;P2;SDS_P1;SDS_P2;PMS_P1;PMS_P2;Temp;Humidity;BMP_temperature;BMP_pressure;BME280_temperature;BME280_humidity;BME280_pressure;Samples;Min_cycle;Max_cycle;Signal;HPM_P1;HPM_P2
2021/04/02 00:00:18;;;;;;;18.17;8.13;;;8.00;99.90;;;;;;2072319;28;20186;-65
2021/04/02 00:01:19;;;;;;;18.02;8.02;;;8.00;99.90;;;;;;2080403;28;20207;-65
2021/04/02 00:02:19;;;;;;;19.20;8.50;;;8.00;99.90;;;;;;2080876;28;20188;-65
2021/04/02 00:03:29;;;;;;;20.90;8.70;;;8.10;99.90;;;;;;2082208;28;20177;-65
2021/04/02 00:04:29;;;;;;;17.95;7.45;;;8.10;99.90;;;;;;2073620;28;20545;-65
2021/04/02 00:05:30;;;;;;;17.43;8.40;;;8.10;99.90;;;;;;2073843;28;20177;-64
2021/04/02 00:06:31;;;;;;;18.13;8.10;;;8.10;99.90;;;;;;2082554;28;20637;-63
2021/04/02 00:07:32;;;;;;;21.70;8.67;;;8.10;99.90;;;;;;2082550;28;20196;-64
2021/04/02 00:08:33;;;;;;;18.50;8.27;;;8.00;99.90;;;;;;2082632;28;20185;-64
2021/04/02 00:09:34;;;;;;;18.85;8.20;;;8.10;99.90;;;;;;2083093;28;20189;-64
2021/04/02 00:10:51;;;;;;;16.95;8.00;;;8.10;99.90;;;;;;2082427;28;20203;-64
2021/04/02 00:11:53;;;;;;;24.73;8.02;;;8.10;99.90;;;;;;2082632;28;20548;-64
2021/04/02 00:12:53;;;;;;;19.75;8.00;;;8.00;99.90;;;;;;2082601;28;20299;-64
2021/04/02 00:13:55;;;;;;;19.03;7.80;;;8.00;99.90;;;;;;2082520;28;20185;-64
2021/04/02 00:14:55;;;;;;;18.17;8.10;;;8.00;99.90;;;;;;2082664;28;20630;-64
2021/04/02 00:15:57;;;;;;;22.33;9.27;;;8.00;99.90;;;;;;2082525;28;20185;-64
2021/04/02 00:16:57;;;;;;;15.45;7.70;;;7.90;99.90;;;;;;2082497;28;20188;-64
2021/04/02 00:17:58;;;;;;;18.77;8.40;;;7.90;99.90;;;;;;2082705;28;20640;-65
2021/04/02 00:18:59;;;;;;;19.50;8.03;;;7.90;99.90;;;;;;2082343;28;20177;-63
2021/04/02 00:20:00;;;;;;;18.67;7.57;;;7.90;99.90;;;;;;2073765;28;20182;-64
2021/04/02 00:21:03;;;;;;;18.40;8.03;;;7.90;99.90;;;;;;2072792;28;20189;-64
2021/04/02 00:22:04;;;;;;;21.50;8.93;;;7.90;99.90;;;;;;2082586;28;20264;-64
2021/04/02 00:23:07;;;;;;;16.57;7.90;;;7.90;99.90;;;;;;2073354;28;20782;-64
2021/04/02 00:24:08;;;;;;;20.33;9.20;;;7.80;99.90;;;;;;2073889;28;20487;-64
2021/04/02 00:25:11;;;;;;;18.75;8.30;;;7.80;99.90;;;;;;2082409;28;20196;-64
2021/04/02 00:26:18;;;;;;;20.65;8.90;;;7.70;99.90;;;;;;2073561;28;20719;-65
2021/04/02 00:27:19;;;;;;;17.88;7.60;;;7.70;99.90;;;;;;2074601;28;20181;-65
2021/04/02 00:28:20;;;;;;;21.90;8.10;;;7.70;99.90;;;;;;2073929;28;20190;-65
2021/04/02 00:29:20;;;;;;;16.53;7.30;;;7.60;99.90;;;;;;2073533;28;20186;-65
2021/04/02 00:30:40;;;;;;;14.70;7.47;;;7.60;99.90;;;;;;2082352;28;20208;-64
2021/04/02 00:31:41;;;;;;;15.73;7.90;;;7.50;99.90;;;;;;2081590;28;20207;-65
2021/04/02 00:32:41;;;;;;;19.73;7.47;;;7.50;99.90;;;;;;2082329;28;20635;-65
2021/04/02 00:33:42;;;;;;;16.73;7.00;;;7.50;99.90;;;;;;2082634;28;20178;-66
2021/04/02 00:34:43;;;;;;;14.20;7.30;;;7.40;99.90;;;;;;2082451;28;20177;-65
2021/04/02 00:35:44;;;;;;;14.70;6.73;;;7.40;99.90;;;;;;2082212;28;20169;-65
2021/04/02 00:36:44;;;;;;;11.93;6.80;;;7.40;99.90;;;;;;2082555;28;20191;-65
2021/04/02 00:37:45;;;;;;;14.43;6.93;;;7.30;99.90;;;;;;2082075;28;20181;-65
2021/04/02 00:38:46;;;;;;;13.53;7.00;;;7.30;99.90;;;;;;2082256;28;20192;-64
2021/04/02 00:39:47;;;;;;;18.60;7.27;;;7.30;99.90;;;;;;2073319;28;20231;-66
2021/04/02 00:40:56;;;;;;;19.15;7.65;;;7.30;99.90;;;;;;2073325;28;20185;-65
2021/04/02 00:41:56;;;;;;;22.65;8.32;;;7.20;99.90;;;;;;2082393;28;20173;-65
2021/04/02 00:42:58;;;;;;;17.13;7.50;;;7.20;99.90;;;;;;2081802;28;20196;-64
2021/04/02 00:43:58;;;;;;;17.40;7.30;;;7.20;99.90;;;;;;2073564;28;20231;-64
2021/04/02 00:44:59;;;;;;;15.73;6.90;;;7.20;99.90;;;;;;2073335;28;20189;-65
2021/04/02 00:46:00;;;;;;;12.87;7.17;;;7.20;99.90;;;;;;2082178;28;20180;-65
2021/04/02 00:47:01;;;;;;;14.80;7.18;;;7.20;99.90;;;;;;2073427;28;20884;-65
2021/04/02 00:48:04;;;;;;;14.10;7.20;;;7.20;99.90;;;;;;2073157;28;20203;-64
2021/04/02 00:49:04;;;;;;;13.38;7.00;;;7.20;99.90;;;;;;2082154;28;20189;-65
2021/04/02 00:50:15;;;;;;;15.23;7.80;;;7.20;99.90;;;;;;2082050;28;20215;-64
2021/04/02 00:51:26;;;;;;;16.67;7.40;;;7.10;99.90;;;;;;2081554;28;20180;-64
2021/04/02 00:52:27;;;;;;;20.38;7.72;;;7.10;99.90;;;;;;2082223;28;20335;-64
2021/04/02 00:53:33;;;;;;;18.73;8.17;;;7.10;99.90;;;;;;2081883;28;20181;-64
2021/04/02 00:54:34;;;;;;;18.73;7.60;;;7.10;99.90;;;;;;2082245;28;20165;-67
2021/04/02 00:55:36;;;;;;;18.38;8.48;;;7.10;99.90;;;;;;2082140;28;20180;-65
2021/04/02 00:56:37;;;;;;;15.70;7.93;;;7.10;99.90;;;;;;2082295;28;20191;-63
2021/04/02 00:57:38;;;;;;;18.63;8.47;;;7.00;99.90;;;;;;2073151;28;20181;-64
2021/04/02 00:58:39;;;;;;;23.60;8.03;;;7.00;99.90;;;;;;2073470;28;20181;-64
2021/04/02 00:59:42;;;;;;;16.20;7.90;;;7.00;99.90;;;;;;2081947;28;20686;-64
2021/04/02 01:00:43;;;;;;;15.85;8.15;;;7.00;99.90;;;;;;2081896;28;20288;-65
2021/04/02 01:01:44;;;;;;;15.27;7.97;;;7.00;99.90;;;;;;2081695;28;20203;-65
2021/04/02 01:02:45;;;;;;;15.00;8.37;;;7.00;99.90;;;;;;2073187;28;20201;-65
2021/04/02 01:03:47;;;;;;;17.53;9.03;;;6.90;99.90;;;;;;2073200;28;20694;-65
2021/04/02 01:04:48;;;;;;;15.32;8.07;;;6.90;99.90;;;;;;2081843;28;20715;-65
2021/04/02 01:05:51;;;;;;;19.00;8.17;;;6.90;99.90;;;;;;2082170;28;20184;-65
2021/04/02 01:06:52;;;;;;;17.05;8.88;;;6.80;99.90;;;;;;2082781;28;20263;-64
2021/04/02 01:07:58;;;;;;;20.90;8.53;;;6.80;99.90;;;;;;2077048;28;20182;-64
2021/04/02 01:08:59;;;;;;;18.20;7.85;;;6.80;99.90;;;;;;2078470;28;20165;-64
2021/04/02 01:10:00;;;;;;;23.13;8.30;;;6.80;99.90;;;;;;2087399;28;20215;-64
2021/04/02 01:11:02;;;;;;;18.70;8.17;;;6.70;99.90;;;;;;2087289;28;20343;-64
2021/04/02 01:12:05;;;;;;;18.45;7.93;;;6.70;99.90;;;;;;2083642;28;20647;-64
2021/04/02 01:13:17;;;;;;;17.83;8.30;;;6.70;99.90;;;;;;2082335;28;20211;-64
2021/04/02 01:14:19;;;;;;;17.85;7.63;;;6.70;99.90;;;;;;2072570;28;20208;-64
2021/04/02 01:15:32;;;;;;;17.30;8.18;;;6.70;99.90;;;;;;2065156;28;20248;-64
2021/04/02 01:16:35;;;;;;;17.00;8.32;;;6.70;99.90;;;;;;2075256;28;20161;-65
2021/04/02 01:17:37;;;;;;;20.13;9.15;;;6.70;99.90;;;;;;2073215;28;20192;-65
2021/04/02 01:18:52;;;;;;;26.10;10.15;;;6.70;99.90;;;;;;2073412;28;20844;-65
2021/04/02 01:19:55;;;;;;;24.13;10.20;;;6.70;99.90;;;;;;2073155;28;20834;-66
2021/04/02 01:20:59;;;;;;;21.33;10.25;;;6.70;99.90;;;;;;2064861;28;20272;-65
2021/04/02 01:22:18;;;;;;;21.35;10.05;;;6.70;99.90;;;;;;2065445;28;20277;-64
2021/04/02 01:23:21;;;;;;;24.05;10.25;;;6.70;99.90;;;;;;2075519;28;20740;-64
2021/04/02 01:24:22;;;;;;;21.77;10.40;;;6.70;99.90;;;;;;2073112;28;20196;-65
2021/04/02 01:26:02;;;;;;;17.03;9.97;;;6.60;99.90;;;;;;2064834;28;20209;-65
2021/04/02 01:27:28;;;;;;;19.50;8.55;;;6.70;99.90;;;;;;2045218;28;20230;-65
2021/04/02 01:29:00;;;;;;;17.88;6.97;;;6.60;99.90;;;;;;2076683;28;20642;-65
2021/04/02 01:30:08;;;;;;;15.02;6.70;;;6.50;99.90;;;;;;2081853;28;20606;-65
2021/04/02 01:31:11;;;;;;;19.23;7.63;;;6.40;99.90;;;;;;2081180;28;20182;-65
2021/04/02 01:32:18;;;;;;;17.63;8.10;;;6.40;99.90;;;;;;2073024;28;20554;-64
2021/04/02 01:33:19;;;;;;;21.92;8.18;;;6.40;99.90;;;;;;2065939;28;20206;-65
2021/04/02 01:34:29;;;;;;;15.67;8.43;;;6.30;99.90;;;;;;2065046;28;20272;-64
2021/04/02 01:35:35;;;;;;;19.10;9.38;;;6.30;99.90;;;;;;2065941;28;20203;-64
2021/04/02 01:36:41;;;;;;;17.55;8.18;;;6.30;99.90;;;;;;2073854;28;20301;-64
2021/04/02 01:38:03;;;;;;;18.17;9.30;;;6.30;99.90;;;;;;2072785;28;20183;-64
2021/04/02 01:39:05;;;;;;;22.27;9.45;;;6.40;99.90;;;;;;2068010;28;20651;-65
2021/04/02 01:40:09;;;;;;;25.27;11.00;;;6.30;99.90;;;;;;2065048;28;20571;-65
2021/04/02 01:41:11;;;;;;;20.52;10.85;;;6.30;99.90;;;;;;2064717;28;20725;-65
2021/04/02 01:42:20;;;;;;;20.48;10.90;;;6.30;99.90;;;;;;2073066;28;20242;-65
2021/04/02 01:43:31;;;;;;;23.17;11.43;;;6.30;99.90;;;;;;2081830;28;20184;-64
2021/04/02 01:44:36;;;;;;;25.58;10.95;;;6.30;99.90;;;;;;2073638;28;20164;-64
2021/04/02 01:45:39;;;;;;;25.98;11.60;;;6.30;99.90;;;;;;2065583;28;20175;-64
2021/04/02 01:46:42;;;;;;;22.48;11.15;;;6.30;99.90;;;;;;2065506;28;20579;-65
2021/04/02 01:47:44;;;;;;;29.05;12.45;;;6.30;99.90;;;;;;2065017;28;20211;-64
2021/04/02 01:48:47;;;;;;;21.98;12.50;;;6.40;99.90;;;;;;2073672;28;20267;-65
2021/04/02 01:49:49;;;;;;;24.67;12.23;;;6.40;99.90;;;;;;2073191;28;20205;-64
2021/04/02 01:50:52;;;;;;;28.15;12.68;;;6.40;99.90;;;;;;2072784;28;20189;-64
2021/04/02 01:51:53;;;;;;;27.63;13.65;;;6.40;99.90;;;;;;2081557;28;20188;-65
2021/04/02 01:52:57;;;;;;;31.48;14.65;;;6.40;99.90;;;;;;2072841;28;20295;-64
2021/04/02 01:54:00;;;;;;;26.65;13.93;;;6.40;99.90;;;;;;2064960;28;20222;-63
2021/04/02 01:55:01;;;;;;;29.30;14.35;;;6.40;99.90;;;;;;2073739;28;20178;-64
2021/04/02 01:56:04;;;;;;;27.70;14.65;;;6.40;99.90;;;;;;2080556;28;20180;-64
2021/04/02 01:57:07;;;;;;;29.95;13.88;;;6.40;99.90;;;;;;2073620;28;20231;-65
2021/04/02 01:58:11;;;;;;;27.30;14.30;;;6.40;99.90;;;;;;2081238;28;20223;-65
2021/04/02 01:59:12;;;;;;;27.77;14.40;;;6.30;99.90;;;;;;2089244;28;20229;-65
2021/04/02 02:00:30;;;;;;;30.25;15.77;;;6.40;99.90;;;;;;2080837;28;20199;-65
2021/04/02 02:01:37;;;;;;;30.35;14.35;;;6.30;99.90;;;;;;2083036;28;20537;-65
2021/04/02 02:02:40;;;;;;;26.92;15.02;;;6.40;99.90;;;;;;2090003;28;20668;-64
2021/04/02 02:03:47;;;;;;;30.52;14.63;;;6.30;99.90;;;;;;2089882;28;20183;-64
2021/04/02 02:04:50;;;;;;;27.95;14.60;;;6.30;99.90;;;;;;2080992;28;20179;-65
2021/04/02 02:05:54;;;;;;;29.48;14.52;;;6.20;99.90;;;;;;2081236;28;20664;-64
2021/04/02 02:06:56;;;;;;;23.38;12.98;;;6.20;99.90;;;;;;2089938;28;20543;-64
2021/04/02 02:07:59;;;;;;;29.50;15.13;;;6.20;99.90;;;;;;2089281;28;20182;-64
2021/04/02 02:09:01;;;;;;;31.15;15.52;;;6.20;99.90;;;;;;2080990;28;20694;-64
2021/04/02 02:10:03;;;;;;;28.73;14.27;;;6.10;99.90;;;;;;2081127;28;20284;-65
2021/04/02 02:11:15;;;;;;;30.33;14.27;;;6.20;99.90;;;;;;2089101;28;20222;-64
2021/04/02 02:12:17;;;;;;;34.15;16.35;;;6.20;99.90;;;;;;2089764;28;20168;-64
2021/04/02 02:13:20;;;;;;;31.88;15.20;;;6.10;99.90;;;;;;2089722;28;20752;-65
2021/04/02 02:14:25;;;;;;;28.77;15.95;;;6.10;99.90;;;;;;2080932;28;20184;-64
2021/04/02 02:15:27;;;;;;;30.77;15.25;;;6.10;99.90;;;;;;2072838;28;20214;-65
2021/04/02 02:16:29;;;;;;;34.95;15.32;;;6.10;99.90;;;;;;2072934;28;20185;-65
2021/04/02 02:17:30;;;;;;;27.25;14.27;;;6.10;99.90;;;;;;2080778;28;20219;-64
2021/04/02 02:18:32;;;;;;;29.33;14.90;;;6.10;99.90;;;;;;2089710;28;20179;-65
2021/04/02 02:19:37;;;;;;;24.05;12.85;;;6.10;99.90;;;;;;2080705;28;20183;-65
2021/04/02 02:20:42;;;;;;;25.60;12.93;;;6.10;99.90;;;;;;2081309;28;20184;-65
2021/04/02 02:21:47;;;;;;;22.27;12.38;;;6.00;99.90;;;;;;2088831;28;20174;-64
2021/04/02 02:22:47;;;;;;;24.63;12.90;;;6.00;99.90;;;;;;2080701;28;20227;-65
2021/04/02 02:23:49;;;;;;;29.70;12.33;;;6.00;99.90;;;;;;2080454;28;20192;-65
2021/04/02 02:24:50;;;;;;;25.63;13.30;;;5.90;99.90;;;;;;2089626;28;20244;-65
2021/04/02 02:25:51;;;;;;;26.97;13.53;;;5.90;99.90;;;;;;2080053;28;20221;-68
2021/04/02 02:26:52;;;;;;;30.53;15.17;;;5.90;99.90;;;;;;2072575;28;20185;-65
2021/04/02 02:27:54;;;;;;;30.85;14.88;;;5.90;99.90;;;;;;2072526;28;20190;-65
2021/04/02 02:28:55;;;;;;;36.58;17.50;;;5.90;99.90;;;;;;2080840;28;20191;-65
2021/04/02 02:29:56;;;;;;;35.17;17.10;;;5.90;99.90;;;;;;2080454;28;20205;-64
2021/04/02 02:30:57;;;;;;;36.67;17.15;;;5.90;99.90;;;;;;2080101;28;20240;-64
2021/04/02 02:31:58;;;;;;;36.67;18.30;;;6.00;99.90;;;;;;2089265;28;20518;-65
2021/04/02 02:32:59;;;;;;;36.80;19.30;;;6.00;99.90;;;;;;2089591;28;20249;-64
2021/04/02 02:34:01;;;;;;;37.17;18.08;;;6.00;99.90;;;;;;2089371;28;20190;-64
2021/04/02 02:35:04;;;;;;;36.15;19.00;;;6.00;99.90;;;;;;2089559;28;20187;-64
2021/04/02 02:36:06;;;;;;;38.83;18.33;;;6.00;99.90;;;;;;2089474;28;20190;-65
2021/04/02 02:37:07;;;;;;;42.70;20.15;;;6.10;99.90;;;;;;2089594;28;20238;-64
2021/04/02 02:38:09;;;;;;;41.33;19.42;;;6.00;99.90;;;;;;2089426;28;20183;-65
2021/04/02 02:39:13;;;;;;;32.58;18.75;;;6.00;99.90;;;;;;2080239;28;20214;-64
2021/04/02 02:40:24;;;;;;;41.72;19.10;;;6.00;99.90;;;;;;2081506;28;20218;-64
2021/04/02 02:41:29;;;;;;;39.33;19.50;;;6.00;99.90;;;;;;2080727;28;20187;-64
2021/04/02 02:42:30;;;;;;;33.50;18.48;;;6.00;99.90;;;;;;2081150;28;20233;-65
2021/04/02 02:43:32;;;;;;;40.35;20.58;;;6.00;99.90;;;;;;2081217;28;20202;-64
2021/04/02 02:44:33;;;;;;;41.25;19.33;;;6.00;99.90;;;;;;2081421;28;20207;-64
2021/04/02 02:45:35;;;;;;;36.92;20.25;;;6.00;99.90;;;;;;2081093;28;20209;-65
2021/04/02 02:46:36;;;;;;;40.53;20.92;;;6.00;99.90;;;;;;2081318;28;20214;-65
2021/04/02 02:47:37;;;;;;;45.70;21.27;;;5.90;99.90;;;;;;2081030;28;20676;-65
2021/04/02 02:48:38;;;;;;;42.23;19.60;;;5.90;99.90;;;;;;2081339;28;20220;-64
2021/04/02 02:49:40;;;;;;;36.00;19.50;;;5.90;99.90;;;;;;2081009;28;20650;-64
2021/04/02 02:50:46;;;;;;;42.22;22.38;;;5.90;99.90;;;;;;2072255;28;20189;-63
2021/04/02 02:51:48;;;;;;;40.85;21.40;;;5.80;99.90;;;;;;2064561;28;20252;-64
2021/04/02 02:52:49;;;;;;;43.65;21.83;;;5.80;99.90;;;;;;2064522;28;20201;-64
2021/04/02 02:53:51;;;;;;;47.60;22.98;;;5.80;99.90;;;;;;2072267;28;20239;-66
2021/04/02 02:54:54;;;;;;;47.08;24.60;;;5.80;99.90;;;;;;2072506;28;20188;-65
2021/04/02 02:55:55;;;;;;;45.92;24.13;;;5.80;99.90;;;;;;2072599;28;20184;-64
2021/04/02 02:56:58;;;;;;;46.90;23.15;;;5.80;99.90;;;;;;2072426;28;20690;-64
2021/04/02 02:58:01;;;;;;;49.10;23.65;;;5.80;99.90;;;;;;2072443;28;20189;-65
2021/04/02 02:59:04;;;;;;;41.80;22.65;;;5.80;99.90;;;;;;2064242;28;20295;-65
2021/04/02 03:00:15;;;;;;;48.22;24.52;;;5.80;99.90;;;;;;2072427;28;20187;-65
2021/04/02 03:01:16;;;;;;;39.85;22.17;;;5.80;99.90;;;;;;2071690;28;20270;-65
2021/04/02 03:02:18;;;;;;;47.58;23.55;;;5.80;99.90;;;;;;2072181;28;20205;-65
2021/04/02 03:03:22;;;;;;;42.95;21.20;;;5.80;99.90;;;;;;2080454;28;20184;-65
2021/04/02 03:04:25;;;;;;;45.17;23.70;;;5.70;99.90;;;;;;2072123;28;20184;-64
2021/04/02 03:05:28;;;;;;;40.40;21.17;;;5.70;99.90;;;;;;2064425;28;20222;-64
2021/04/02 03:06:35;;;;;;;46.17;22.67;;;5.70;99.90;;;;;;2072638;28;20209;-65
2021/04/02 03:07:36;;;;;;;45.85;22.70;;;5.70;99.90;;;;;;2081035;28;20193;-64
2021/04/02 03:08:46;;;;;;;53.22;23.50;;;5.70;99.90;;;;;;2072228;28;20197;-65
2021/04/02 03:09:50;;;;;;;47.15;23.08;;;5.70;99.90;;;;;;2065025;28;20191;-64
2021/04/02 03:10:51;;;;;;;47.60;26.35;;;5.70;99.90;;;;;;2072109;28;20691;-65
2021/04/02 03:11:53;;;;;;;55.72;26.08;;;5.70;99.90;;;;;;2080727;28;20625;-65
2021/04/02 03:12:55;;;;;;;45.80;24.33;;;5.70;99.90;;;;;;2081119;28;20201;-64
2021/04/02 03:13:57;;;;;;;45.38;24.85;;;5.60;99.90;;;;;;2080826;28;20280;-64
2021/04/02 03:14:59;;;;;;;42.03;24.75;;;5.70;99.90;;;;;;2072135;28;20192;-64
2021/04/02 03:16:00;;;;;;;51.92;27.40;;;5.70;99.90;;;;;;2072291;28;20671;-64
2021/04/02 03:17:04;;;;;;;58.33;28.27;;;5.70;99.90;;;;;;2072538;28;20207;-65
2021/04/02 03:18:07;;;;;;;54.95;28.52;;;5.60;99.90;;;;;;2072712;28;20187;-65
2021/04/02 03:19:11;;;;;;;52.53;26.67;;;5.60;99.90;;;;;;2064230;28;20210;-66
2021/04/02 03:20:12;;;;;;;54.70;27.52;;;5.60;99.90;;;;;;2064714;28;20175;-65
2021/04/02 03:21:14;;;;;;;66.93;29.90;;;5.70;99.90;;;;;;2071630;28;20196;-66
2021/04/02 03:22:17;;;;;;;56.58;29.17;;;5.70;99.90;;;;;;2064207;28;20200;-65
2021/04/02 03:23:18;;;;;;;56.28;27.23;;;5.70;99.90;;;;;;2072435;28;20186;-66
2021/04/02 03:24:19;;;;;;;55.77;29.60;;;5.60;99.90;;;;;;2072208;28;20194;-64
2021/04/02 03:25:23;;;;;;;48.27;26.63;;;5.60;99.90;;;;;;2081035;28;20434;-65
2021/04/02 03:26:24;;;;;;;65.88;29.77;;;5.60;99.90;;;;;;2080984;28;20263;-65
2021/04/02 03:27:27;;;;;;;57.47;29.90;;;5.60;99.90;;;;;;2072292;28;20199;-65
2021/04/02 03:28:29;;;;;;;57.80;29.25;;;5.50;99.90;;;;;;2056316;28;20670;-65
2021/04/02 03:29:30;;;;;;;56.10;29.48;;;5.60;99.90;;;;;;2064640;28;20184;-66
2021/04/02 03:30:32;;;;;;;50.47;25.63;;;5.50;99.90;;;;;;2080980;28;20182;-65
2021/04/02 03:31:37;;;;;;;44.40;22.52;;;5.50;99.90;;;;;;2071607;28;20195;-64
2021/04/02 03:32:42;;;;;;;47.50;23.40;;;5.40;99.90;;;;;;2064596;28;20743;-65
2021/04/02 03:33:54;;;;;;;41.05;21.13;;;5.40;99.90;;;;;;2064256;28;20193;-65
2021/04/02 03:34:56;;;;;;;37.38;19.77;;;5.40;99.90;;;;;;2065913;28;20173;-65
2021/04/02 03:36:02;;;;;;;36.75;19.08;;;5.30;99.90;;;;;;2072804;28;20183;-65
2021/04/02 03:37:10;;;;;;;37.80;18.98;;;5.30;99.90;;;;;;2072105;28;20202;-65
2021/04/02 03:38:15;;;;;;;36.80;19.05;;;5.30;99.90;;;;;;2074594;28;20199;-63
2021/04/02 03:39:26;;;;;;;39.78;19.70;;;5.20;99.90;;;;;;2073818;28;20615;-65
2021/04/02 03:40:28;;;;;;;38.75;20.35;;;5.20;99.90;;;;;;2067134;28;20317;-64
2021/04/02 03:41:32;;;;;;;39.60;20.20;;;5.20;99.90;;;;;;2065485;28;20183;-66
2021/04/02 03:42:35;;;;;;;43.63;21.60;;;5.20;99.90;;;;;;2065978;28;20203;-65
2021/04/02 03:43:37;;;;;;;43.75;23.98;;;5.20;99.90;;;;;;2074054;28;20649;-66
2021/04/02 03:44:40;;;;;;;41.15;21.95;;;5.20;99.90;;;;;;2074003;28;20174;-65
2021/04/02 03:45:45;;;;;;;42.08;22.67;;;5.20;99.90;;;;;;2066028;28;20552;-65
2021/04/02 03:46:47;;;;;;;44.53;23.83;;;5.20;99.90;;;;;;2074463;28;20198;-66
2021/04/02 03:47:52;;;;;;;55.10;27.60;;;5.20;99.90;;;;;;2085551;28;20221;-66
2021/04/02 03:48:57;;;;;;;61.65;28.13;;;5.20;99.90;;;;;;2082067;28;20175;-68
2021/04/02 03:50:00;;;;;;;51.05;26.40;;;5.20;99.90;;;;;;2082579;28;20676;-65
2021/04/02 03:51:04;;;;;;;49.90;26.15;;;5.20;99.90;;;;;;2081529;28;20223;-65
2021/04/02 03:52:10;;;;;;;50.25;27.27;;;5.30;99.90;;;;;;2082370;28;20186;-65
2021/04/02 03:53:28;;;;;;;49.88;27.75;;;5.30;99.90;;;;;;2082075;28;20215;-65
2021/04/02 03:54:32;;;;;;;48.65;26.00;;;5.30;99.90;;;;;;2084454;28;20176;-64
2021/04/02 03:55:36;;;;;;;46.70;26.73;;;5.30;99.90;;;;;;2090632;28;20258;-66
2021/04/02 03:56:39;;;;;;;52.85;27.63;;;5.40;99.90;;;;;;2073465;28;20644;-66
2021/04/02 03:57:41;;;;;;;50.53;26.75;;;5.40;99.90;;;;;;2066125;28;20181;-66
2021/04/02 03:58:45;;;;;;;57.58;29.58;;;5.40;99.90;;;;;;2073629;28;20180;-65
2021/04/02 03:59:50;;;;;;;56.38;30.63;;;5.40;99.90;;;;;;2074001;28;20698;-65
2021/04/02 04:01:11;;;;;;;66.50;33.65;;;5.40;99.90;;;;;;2073892;28;20175;-66
2021/04/02 04:02:13;;;;;;;60.15;30.58;;;5.40;99.90;;;;;;2089315;28;20184;-65
2021/04/02 04:03:16;;;;;;;65.15;32.22;;;5.40;99.90;;;;;;2094477;28;20184;-65
2021/04/02 04:04:23;;;;;;;66.78;32.75;;;5.30;99.90;;;;;;2086913;28;20216;-65
2021/04/02 04:05:25;;;;;;;62.95;30.80;;;5.30;99.90;;;;;;2081661;28;20182;-65
2021/04/02 04:06:26;;;;;;;60.85;32.55;;;5.30;99.90;;;;;;2081243;28;20669;-65
2021/04/02 04:07:30;;;;;;;80.50;36.83;;;5.30;99.90;;;;;;2089252;28;20198;-64
2021/04/02 04:08:32;;;;;;;80.63;37.03;;;5.30;99.90;;;;;;2089109;28;20178;-65
2021/04/02 04:09:35;;;;;;;65.90;32.17;;;5.30;99.90;;;;;;2078755;28;20185;-65
2021/04/02 04:10:35;;;;;;;75.63;35.92;;;5.30;99.90;;;;;;2083152;28;20186;-65
2021/04/02 04:11:38;;;;;;;66.90;34.03;;;5.30;99.90;;;;;;2073346;28;20184;-66
2021/04/02 04:12:42;;;;;;;59.95;32.67;;;5.20;99.90;;;;;;2065962;28;20214;-65
2021/04/02 04:13:47;;;;;;;62.83;33.10;;;5.20;99.90;;;;;;2074080;28;20171;-65
2021/04/02 04:14:50;;;;;;;64.68;33.65;;;5.20;99.90;;;;;;2074047;28;20264;-65
2021/04/02 04:15:52;;;;;;;66.65;32.55;;;5.20;99.90;;;;;;2082025;28;20197;-65
2021/04/02 04:16:56;;;;;;;66.32;32.95;;;5.20;99.90;;;;;;2090422;28;20176;-64
2021/04/02 04:17:58;;;;;;;67.22;33.92;;;5.10;99.90;;;;;;2090650;28;20182;-64
2021/04/02 04:19:01;;;;;;;64.95;32.63;;;5.10;99.90;;;;;;2081707;28;20182;-65
2021/04/02 04:20:04;;;;;;;74.38;35.92;;;5.10;99.90;;;;;;2073484;28;20201;-65
2021/04/02 04:21:06;;;;;;;83.03;37.75;;;5.00;99.90;;;;;;2073158;28;20270;-65
2021/04/02 04:22:07;;;;;;;70.65;34.83;;;5.00;99.90;;;;;;2073614;28;20203;-65
2021/04/02 04:23:09;;;;;;;69.68;35.60;;;5.00;99.90;;;;;;2081394;28;20194;-65
2021/04/02 04:24:20;;;;;;;78.50;36.53;;;5.00;99.90;;;;;;2081634;28;20206;-65
2021/04/02 04:25:25;;;;;;;69.53;34.75;;;5.00;99.90;;;;;;2082954;28;20611;-65
2021/04/02 04:26:28;;;;;;;78.07;37.35;;;5.00;99.90;;;;;;2073520;28;20196;-65
2021/04/02 04:27:31;;;;;;;81.15;38.60;;;4.90;99.90;;;;;;2074197;28;20212;-65
2021/04/02 04:28:35;;;;;;;79.57;35.40;;;4.90;99.90;;;;;;2081639;28;20185;-64
2021/04/02 04:29:41;;;;;;;80.75;36.92;;;4.90;99.90;;;;;;2081855;28;20209;-64
2021/04/02 04:30:47;;;;;;;87.65;39.47;;;4.90;99.90;;;;;;2081257;28;20166;-64
2021/04/02 04:31:50;;;;;;;75.47;37.33;;;4.90;99.90;;;;;;2073776;28;20525;-65
2021/04/02 04:32:54;;;;;;;67.68;36.88;;;4.80;99.90;;;;;;2081725;28;20268;-66
2021/04/02 04:33:58;;;;;;;80.40;36.88;;;4.80;99.90;;;;;;2081434;28;20189;-65
2021/04/02 04:35:00;;;;;;;70.72;37.03;;;4.80;99.90;;;;;;2073617;28;20206;-65
2021/04/02 04:36:03;;;;;;;63.80;34.40;;;4.80;99.90;;;;;;2073348;28;20179;-65
2021/04/02 04:37:06;;;;;;;69.20;36.13;;;4.80;99.90;;;;;;2081566;28;20217;-65
2021/04/02 04:38:08;;;;;;;77.78;37.05;;;4.80;99.90;;;;;;2090416;28;20181;-65
2021/04/02 04:39:09;;;;;;;85.88;38.53;;;4.80;99.90;;;;;;2081492;28;20173;-64
2021/04/02 04:40:15;;;;;;;61.97;32.50;;;4.80;99.90;;;;;;2073182;28;20226;-65
2021/04/02 04:41:18;;;;;;;68.35;35.10;;;4.80;99.90;;;;;;2073119;28;20202;-65
2021/04/02 04:42:21;;;;;;;66.85;34.83;;;4.80;99.90;;;;;;2081702;28;20692;-65
2021/04/02 04:43:23;;;;;;;61.55;33.38;;;4.80;99.90;;;;;;2081385;28;20181;-65
2021/04/02 04:44:26;;;;;;;69.07;34.08;;;4.80;99.90;;;;;;2081615;28;20668;-65
2021/04/02 04:45:28;;;;;;;63.58;33.17;;;4.70;99.90;;;;;;2090106;28;20176;-66
2021/04/02 04:46:30;;;;;;;63.20;32.38;;;4.70;99.90;;;;;;2081266;28;20177;-65
2021/04/02 04:47:31;;;;;;;63.92;33.03;;;4.70;99.90;;;;;;2081474;28;20728;-65
2021/04/02 04:48:32;;;;;;;65.27;33.73;;;4.70;99.90;;;;;;2089916;28;20181;-64
2021/04/02 04:49:33;;;;;;;74.00;36.75;;;4.70;99.90;;;;;;2090285;28;20667;-65
2021/04/02 04:50:34;;;;;;;82.53;38.53;;;4.70;99.90;;;;;;2081226;28;20195;-65
2021/04/02 04:51:35;;;;;;;74.43;35.77;;;4.70;99.90;;;;;;2080731;28;20642;-64
2021/04/02 04:52:44;;;;;;;78.85;37.75;;;4.70;99.90;;;;;;2081064;28;20482;-65
2021/04/02 04:53:51;;;;;;;83.10;37.88;;;4.70;99.90;;;;;;2074343;28;20162;-64
2021/04/02 04:54:54;;;;;;;82.68;39.53;;;4.60;99.90;;;;;;2082252;28;20257;-66
2021/04/02 04:56:02;;;;;;;94.43;42.28;;;4.60;99.90;;;;;;2081256;28;20676;-65
2021/04/02 04:57:05;;;;;;;67.85;36.20;;;4.60;99.90;;;;;;2082378;28;20565;-65
2021/04/02 04:58:10;;;;;;;69.57;36.78;;;4.60;99.90;;;;;;2081146;28;20728;-65
2021/04/02 04:59:11;;;;;;;67.43;36.35;;;4.60;99.90;;;;;;2073885;28;20175;-65
2021/04/02 05:00:14;;;;;;;71.00;36.88;;;4.60;99.90;;;;;;2073114;28;20196;-65
2021/04/02 05:01:16;;;;;;;75.43;36.58;;;4.60;99.90;;;;;;2080832;28;20200;-65
2021/04/02 05:02:19;;;;;;;72.28;37.33;;;4.60;99.90;;;;;;2089841;28;20677;-66
2021/04/02 05:03:23;;;;;;;75.95;36.40;;;4.60;99.90;;;;;;2081200;28;20185;-65
2021/04/02 05:04:26;;;;;;;69.38;35.08;;;4.60;99.90;;;;;;2081585;28;20185;-65
2021/04/02 05:05:34;;;;;;;70.57;37.38;;;4.60;99.90;;;;;;2090248;28;20546;-66
2021/04/02 05:06:38;;;;;;;69.28;35.42;;;4.50;99.90;;;;;;2081199;28;20458;-65
2021/04/02 05:07:41;;;;;;;68.93;37.03;;;4.50;99.90;;;;;;2073444;28;20280;-65
2021/04/02 05:08:46;;;;;;;75.30;37.58;;;4.50;99.90;;;;;;2073743;28;20182;-65
2021/04/02 05:09:48;;;;;;;74.72;37.28;;;4.50;99.90;;;;;;2074213;28;20182;-65
2021/04/02 05:10:52;;;;;;;67.40;35.15;;;4.50;99.90;;;;;;2073334;28;20194;-64
2021/04/02 05:11:55;;;;;;;79.80;37.78;;;4.50;99.90;;;;;;2073936;28;20177;-66
2021/04/02 05:12:57;;;;;;;84.70;41.05;;;4.50;99.90;;;;;;2081928;28;20207;-64
2021/04/02 05:13:59;;;;;;;80.13;40.50;;;4.40;99.90;;;;;;2081703;28;20200;-66
2021/04/02 05:15:01;;;;;;;71.97;37.28;;;4.50;99.90;;;;;;2073425;28;20249;-65
2021/04/02 05:16:04;;;;;;;83.28;37.92;;;4.40;99.90;;;;;;2073725;28;20551;-65
2021/04/02 05:17:06;;;;;;;80.32;40.75;;;4.50;99.90;;;;;;2073540;28;20678;-65
2021/04/02 05:18:08;;;;;;;84.65;41.55;;;4.40;99.90;;;;;;2081337;28;20177;-65
2021/04/02 05:19:11;;;;;;;72.55;38.33;;;4.50;99.90;;;;;;2089720;28;20189;-65
2021/04/02 05:20:12;;;;;;;73.80;39.20;;;4.50;99.90;;;;;;2080916;28;20256;-65
2021/04/02 05:21:13;;;;;;;79.72;38.13;;;4.50;99.90;;;;;;2080184;28;20185;-65
2021/04/02 05:22:13;;;;;;;75.83;37.97;;;4.50;99.90;;;;;;2089891;28;20206;-64
2021/04/02 05:23:16;;;;;;;72.30;36.03;;;4.50;99.90;;;;;;2089694;28;20194;-65
2021/04/02 05:24:17;;;;;;;79.50;37.22;;;4.50;99.90;;;;;;2089710;28;20181;-65
2021/04/02 05:25:18;;;;;;;86.97;40.10;;;4.60;99.90;;;;;;2089747;28;20691;-64
2021/04/02 05:26:20;;;;;;;80.27;37.97;;;4.60;99.90;;;;;;2089779;28;20655;-65
2021/04/02 05:27:21;;;;;;;68.70;36.78;;;4.60;99.90;;;;;;2089596;28;20595;-65
2021/04/02 05:28:21;;;;;;;67.37;36.03;;;4.60;99.90;;;;;;2080882;28;20185;-65